createdAt,value
2023-03-06T00:00:42.973Z,8.16
2023-03-06T00:03:09.809Z,8.13
2023-03-06T00:05:36.538Z,8.12
2023-03-06T00:08:04.140Z,8.03
2023-03-06T00:10:32.100Z,8.09
2023-03-06T00:13:05.433Z,8.14
2023-03-06T00:15:32.433Z,8.08
2023-03-06T00:17:59.382Z,8.03
2023-03-06T00:20:27.076Z,8.06
2023-03-06T00:22:55.801Z,8.01
2023-03-06T00:25:22.652Z,7.97
2023-03-06T00:27:50.194Z,7.99
2023-03-06T00:30:21.011Z,8.03
2023-03-06T00:32:48.135Z,8.04
2023-03-06T00:35:15.581Z,8.06
2023-03-06T00:37:44.611Z,8.01
2023-03-06T00:40:15.071Z,8.09
2023-03-06T00:42:41.899Z,8.08
2023-03-06T00:45:08.851Z,8.04
2023-03-06T00:47:35.565Z,8.04
2023-03-06T00:50:02.209Z,8.04
2023-03-06T00:52:28.944Z,8.05
2023-03-06T00:54:55.758Z,8.04
2023-03-06T00:57:22.519Z,8.04
2023-03-06T00:59:49.136Z,8.03
2023-03-06T01:02:16.123Z,8.09
2023-03-06T01:04:42.815Z,8.10
2023-03-06T01:07:11.137Z,8.14
2023-03-06T01:09:37.970Z,8.20
2023-03-06T01:12:04.825Z,8.15
2023-03-06T01:14:32.015Z,8.25
2023-03-06T01:16:59.106Z,8.24
2023-03-06T01:19:25.854Z,8.34
2023-03-06T01:21:52.530Z,8.26
2023-03-06T01:24:19.130Z,8.33
2023-03-06T01:26:45.860Z,8.38
2023-03-06T01:29:12.538Z,8.37
2023-03-06T01:31:39.345Z,8.38
2023-03-06T01:34:06.035Z,8.32
2023-03-06T01:36:32.737Z,8.26
2023-03-06T01:38:59.415Z,8.27
2023-03-06T01:41:26.442Z,8.36
2023-03-06T01:43:53.047Z,8.34
2023-03-06T01:46:30.814Z,8.35
2023-03-06T01:49:03.359Z,8.30
2023-03-06T01:51:39.690Z,8.24
2023-03-06T01:54:13.733Z,8.18
2023-03-06T01:56:46.008Z,8.09
2023-03-06T01:59:13.585Z,8.04
2023-03-06T02:01:41.599Z,8.04
2023-03-06T02:04:11.914Z,8.00
2023-03-06T02:06:43.073Z,7.98
2023-03-06T02:09:12.586Z,7.98
2023-03-06T02:11:43.955Z,8.06
2023-03-06T02:14:17.289Z,7.98
2023-03-06T02:16:44.457Z,7.95
2023-03-06T02:19:27.906Z,7.91
2023-03-06T02:21:55.288Z,7.96
2023-03-06T02:24:37.542Z,7.98
2023-03-06T02:27:07.175Z,7.97
2023-03-06T02:29:34.621Z,7.93
2023-03-06T02:32:03.284Z,8.07
2023-03-06T02:34:29.802Z,8.02
2023-03-06T02:37:02.698Z,7.92
2023-03-06T02:39:33.725Z,7.97
2023-03-06T02:42:00.842Z,7.88
2023-03-06T02:44:32.100Z,7.90
2023-03-06T02:46:58.863Z,8.00
2023-03-06T02:49:26.514Z,8.09
2023-03-06T02:51:53.352Z,8.15
2023-03-06T02:54:20.006Z,8.12
2023-03-06T02:56:46.759Z,8.03
2023-03-06T02:59:13.457Z,7.96
2023-03-06T03:01:40.313Z,7.93
2023-03-06T03:04:08.162Z,7.98
2023-03-06T03:06:34.942Z,8.03
2023-03-06T03:09:01.827Z,8.04
2023-03-06T03:11:29.067Z,8.02
2023-03-06T03:13:56.228Z,7.92
2023-03-06T03:16:24.560Z,7.84
2023-03-06T03:18:51.441Z,7.76
2023-03-06T03:21:21.092Z,7.69
2023-03-06T03:23:48.671Z,7.70
2023-03-06T03:26:20.729Z,7.71
2023-03-06T03:28:54.385Z,7.54
2023-03-06T03:31:21.898Z,7.51
2023-03-06T03:33:49.698Z,7.61
2023-03-06T03:36:18.174Z,7.70
2023-03-06T03:38:47.217Z,7.76
2023-03-06T03:41:14.574Z,7.74
2023-03-06T03:43:42.518Z,7.73
2023-03-06T03:46:09.665Z,7.56
2023-03-06T03:48:36.883Z,7.47
2023-03-06T03:51:10.681Z,7.38
2023-03-06T03:53:41.045Z,7.35
2023-03-06T03:56:09.824Z,7.39
2023-03-06T03:58:43.759Z,7.44
2023-03-06T04:01:10.625Z,7.41
2023-03-06T04:03:37.543Z,7.37
2023-03-06T04:06:06.714Z,7.40
2023-03-06T04:08:34.243Z,7.39
2023-03-06T04:11:00.977Z,7.37
2023-03-06T04:13:29.752Z,7.40
2023-03-06T04:15:57.125Z,7.36
2023-03-06T04:18:24.228Z,7.34
2023-03-06T04:20:53.691Z,7.36
2023-03-06T04:23:22.882Z,7.43
2023-03-06T04:25:50.387Z,7.45
2023-03-06T04:28:17.588Z,7.40
2023-03-06T04:30:44.505Z,7.40
2023-03-06T04:33:11.238Z,7.44
2023-03-06T04:35:38.210Z,7.45
2023-03-06T04:38:10.374Z,7.44
2023-03-06T04:40:37.262Z,7.40
2023-03-06T04:43:05.338Z,7.47
2023-03-06T04:45:32.796Z,7.45
2023-03-06T04:47:59.601Z,7.40
2023-03-06T04:50:28.089Z,7.40
2023-03-06T04:52:54.811Z,7.40
2023-03-06T04:55:21.477Z,7.36
2023-03-06T04:57:48.386Z,7.39
2023-03-06T05:00:24.148Z,7.40
2023-03-06T05:02:51.537Z,7.40
2023-03-06T05:05:19.244Z,7.38
2023-03-06T05:07:46.073Z,7.35
2023-03-06T05:10:15.344Z,7.24
2023-03-06T05:12:42.183Z,7.23
2023-03-06T05:15:09.846Z,7.22
2023-03-06T05:17:37.832Z,7.23
2023-03-06T05:20:07.827Z,7.20
2023-03-06T05:22:35.040Z,7.32
2023-03-06T05:25:01.772Z,7.32
2023-03-06T05:27:28.960Z,7.23
2023-03-06T05:29:55.892Z,7.17
2023-03-06T05:32:23.241Z,7.14
2023-03-06T05:34:50.401Z,7.07
2023-03-06T05:37:17.360Z,7.08
2023-03-06T05:39:44.379Z,7.08
2023-03-06T05:42:11.102Z,7.07
2023-03-06T05:44:37.935Z,7.15
2023-03-06T05:47:05.110Z,7.35
2023-03-06T05:49:33.983Z,7.38
2023-03-06T05:52:01.468Z,7.36
2023-03-06T05:54:28.141Z,7.29
2023-03-06T05:56:56.219Z,7.23
2023-03-06T05:59:29.198Z,7.29
2023-03-06T06:01:56.490Z,7.24
2023-03-06T06:04:24.730Z,7.24
2023-03-06T06:06:59.011Z,7.27
2023-03-06T06:09:26.407Z,7.11
2023-03-06T06:11:55.045Z,7.18
2023-03-06T06:14:22.036Z,7.19
2023-03-06T06:16:48.862Z,7.22
2023-03-06T06:19:18.882Z,7.25
2023-03-06T06:21:47.762Z,7.29
2023-03-06T06:24:19.538Z,7.32
2023-03-06T06:26:46.665Z,7.33
2023-03-06T06:29:13.597Z,7.31
2023-03-06T06:31:41.313Z,7.38
2023-03-06T06:34:09.865Z,7.36
2023-03-06T06:36:37.272Z,7.39
2023-03-06T06:39:05.554Z,7.45
2023-03-06T06:41:53.034Z,7.36
2023-03-06T06:44:20.196Z,7.30
2023-03-06T06:47:21.437Z,7.33
2023-03-06T06:49:34.330Z,7.38
2023-03-06T06:52:01.173Z,7.39
2023-03-06T06:54:28.358Z,7.49
2023-03-06T06:56:55.110Z,7.52
2023-03-06T06:59:23.637Z,7.48
2023-03-06T07:01:52.267Z,7.41
2023-03-06T07:04:19.438Z,7.27
2023-03-06T07:06:46.712Z,7.24
2023-03-06T07:09:13.878Z,7.36
2023-03-06T07:11:41.435Z,7.46
2023-03-06T07:14:08.647Z,7.47
2023-03-06T07:16:35.579Z,7.45
2023-03-06T07:19:02.447Z,7.40
2023-03-06T07:21:29.301Z,7.39
2023-03-06T07:23:57.526Z,7.46
2023-03-06T07:26:28.497Z,7.45
2023-03-06T07:28:55.458Z,7.55
2023-03-06T07:31:25.073Z,7.62
2023-03-06T07:33:54.148Z,7.66
2023-03-06T07:36:23.295Z,7.64
2023-03-06T07:38:50.215Z,7.64
2023-03-06T07:41:21.856Z,7.61
2023-03-06T07:43:50.176Z,7.65
2023-03-06T07:46:16.899Z,7.64
2023-03-06T07:48:44.545Z,7.62
2023-03-06T07:51:16.629Z,7.58
2023-03-06T07:53:43.676Z,7.50
2023-03-06T07:56:11.953Z,7.45
2023-03-06T07:58:41.169Z,7.45
2023-03-06T08:01:10.557Z,7.53
2023-03-06T08:03:37.662Z,7.60
2023-03-06T08:06:09.322Z,7.62
2023-03-06T08:08:39.304Z,7.67
2023-03-06T08:11:06.927Z,7.68
2023-03-06T08:13:33.972Z,7.67
2023-03-06T08:16:00.927Z,7.74
2023-03-06T08:18:28.405Z,7.68
2023-03-06T08:21:05.409Z,7.75
2023-03-06T08:23:33.250Z,7.90
2023-03-06T08:26:03.277Z,7.90
2023-03-06T08:28:30.120Z,7.90
2023-03-06T08:30:57.708Z,7.90
2023-03-06T08:33:24.932Z,7.92
2023-03-06T08:35:52.668Z,7.89
2023-03-06T08:38:19.524Z,7.90
2023-03-06T08:40:46.173Z,7.91
2023-03-06T08:43:14.166Z,7.89
2023-03-06T08:45:41.156Z,7.88
2023-03-06T08:48:07.949Z,7.81
2023-03-06T08:50:34.694Z,7.81
2023-03-06T08:53:01.619Z,7.81
2023-03-06T08:55:28.308Z,7.86
2023-03-06T08:57:55.115Z,7.95
2023-03-06T09:00:21.855Z,7.98
2023-03-06T09:02:48.581Z,8.00
2023-03-06T09:05:15.247Z,8.00
2023-03-06T09:07:41.876Z,7.96
2023-03-06T09:10:13.783Z,8.00
2023-03-06T09:12:49.856Z,8.00
2023-03-06T09:15:18.560Z,8.01
2023-03-06T09:17:45.803Z,7.95
2023-03-06T09:20:13.470Z,8.03
2023-03-06T09:22:42.361Z,8.11
2023-03-06T09:25:11.070Z,8.10
2023-03-06T09:27:37.690Z,8.09
2023-03-06T09:30:04.833Z,8.09
2023-03-06T09:32:31.519Z,8.06
2023-03-06T09:34:58.310Z,8.10
2023-03-06T09:37:24.981Z,8.16
2023-03-06T09:39:51.725Z,8.20
2023-03-06T09:42:23.775Z,8.23
2023-03-06T09:44:54.654Z,8.22
2023-03-06T09:47:48.220Z,8.36
2023-03-06T09:50:33.896Z,8.40
2023-03-06T09:53:19.339Z,8.41
2023-03-06T09:55:58.243Z,8.61
2023-03-06T09:58:27.690Z,8.75
2023-03-06T10:01:07.153Z,8.90
2023-03-06T10:03:36.784Z,8.90
2023-03-06T10:06:30.128Z,9.07
2023-03-06T10:09:11.944Z,9.10
2023-03-06T10:12:24.584Z,9.17
2023-03-06T10:15:06.294Z,9.46
2023-03-06T10:17:41.268Z,9.48
2023-03-06T10:20:33.792Z,9.65
2023-03-06T10:23:22.052Z,9.77
2023-03-06T10:25:59.879Z,9.91
2023-03-06T10:28:38.860Z,9.94
2023-03-06T10:31:20.359Z,9.88
2023-03-06T10:34:03.359Z,9.92
2023-03-06T10:36:30.239Z,10.06
2023-03-06T10:38:58.873Z,10.08
2023-03-06T10:41:27.631Z,10.10
2023-03-06T10:44:19.376Z,10.13
2023-03-06T10:46:49.129Z,10.16
2023-03-06T10:49:38.455Z,10.23
2023-03-06T10:52:11.053Z,10.24
2023-03-06T10:54:40.538Z,10.35
2023-03-06T10:57:26.953Z,10.34
2023-03-06T10:59:58.939Z,10.31
2023-03-06T11:02:33.320Z,10.28
2023-03-06T11:05:01.412Z,10.37
2023-03-06T11:07:35.329Z,10.52
2023-03-06T11:10:24.962Z,10.63
2023-03-06T11:13:10.381Z,10.68
2023-03-06T11:15:37.003Z,10.66
2023-03-06T11:18:09.592Z,10.71
2023-03-06T11:20:52.378Z,10.73
2023-03-06T11:23:47.177Z,10.77
2023-03-06T11:26:17.422Z,10.82
2023-03-06T11:28:50.216Z,10.80
2023-03-06T11:31:20.851Z,10.82
2023-03-06T11:34:13.913Z,10.98
2023-03-06T11:36:54.513Z,11.02
2023-03-06T11:39:36.265Z,11.02
2023-03-06T11:42:12.638Z,10.95
2023-03-06T11:44:52.989Z,10.95
2023-03-06T11:47:28.754Z,11.13
2023-03-06T11:50:11.381Z,11.26
2023-03-06T11:52:45.295Z,11.27
2023-03-06T11:55:16.445Z,11.41
2023-03-06T11:57:52.701Z,11.53
2023-03-06T12:00:48.574Z,11.58
2023-03-06T12:03:40.482Z,11.80
2023-03-06T12:06:41.120Z,11.81
2023-03-06T12:09:13.542Z,11.81
2023-03-06T12:11:49.480Z,11.81
2023-03-06T12:14:31.024Z,11.74
2023-03-06T12:17:12.725Z,11.71
2023-03-06T12:19:57.271Z,11.60
2023-03-06T12:22:23.908Z,11.55
2023-03-06T12:25:06.658Z,11.47
2023-03-06T12:27:55.251Z,11.69
2023-03-06T12:30:43.181Z,11.95
2023-03-06T12:33:17.330Z,11.93
2023-03-06T12:35:55.130Z,12.14
2023-03-06T12:38:21.746Z,12.09
2023-03-06T12:41:12.122Z,12.20
2023-03-06T12:43:47.535Z,12.33
2023-03-06T12:46:17.553Z,12.34
2023-03-06T12:48:55.721Z,12.55
2023-03-06T12:51:22.729Z,12.63
2023-03-06T12:53:50.998Z,12.57
2023-03-06T12:56:19.557Z,12.50
2023-03-06T12:58:49.174Z,12.51
2023-03-06T13:01:39.119Z,12.52
2023-03-06T13:04:24.637Z,12.49
2023-03-06T13:07:16.882Z,12.41
2023-03-06T13:10:22.346Z,11.90
2023-03-06T13:13:05.060Z,11.99
2023-03-06T13:15:39.134Z,12.23
2023-03-06T13:18:24.001Z,12.37
2023-03-06T13:20:55.254Z,12.47
2023-03-06T13:23:34.020Z,12.47
2023-03-06T13:26:23.623Z,12.58
2023-03-06T13:28:54.125Z,12.26
2023-03-06T13:31:33.024Z,12.01
2023-03-06T13:34:01.143Z,12.07
2023-03-06T13:36:31.818Z,11.96
2023-03-06T13:39:09.055Z,11.85
2023-03-06T13:41:59.658Z,11.78
2023-03-06T13:44:26.315Z,11.64
2023-03-06T13:47:22.082Z,11.65
2023-03-06T13:49:49.082Z,11.86
2023-03-06T13:52:28.222Z,11.93
2023-03-06T13:55:12.439Z,12.01
2023-03-06T13:58:14.058Z,11.96
2023-03-06T14:00:53.305Z,11.84
2023-03-06T14:03:31.876Z,11.74
2023-03-06T14:05:59.094Z,11.85
2023-03-06T14:08:30.331Z,11.81
2023-03-06T14:11:21.763Z,12.03
2023-03-06T14:13:54.813Z,12.07
2023-03-06T14:16:43.746Z,12.11
2023-03-06T14:19:17.366Z,12.17
2023-03-06T14:21:56.138Z,12.15
2023-03-06T14:24:33.674Z,12.08
2023-03-06T14:27:00.534Z,11.97
2023-03-06T14:29:29.893Z,11.93
2023-03-06T14:31:59.265Z,11.93
2023-03-06T14:34:28.803Z,11.87
2023-03-06T14:37:00.031Z,11.80
2023-03-06T14:39:44.074Z,11.77
2023-03-06T14:42:29.181Z,11.76
2023-03-06T14:45:15.949Z,11.80
2023-03-06T14:47:43.835Z,11.79
2023-03-06T14:50:21.804Z,11.74
2023-03-06T14:53:13.437Z,11.72
2023-03-06T14:55:50.480Z,11.71
2023-03-06T14:58:21.997Z,11.93
2023-03-06T15:00:54.606Z,11.96
2023-03-06T15:03:26.276Z,11.91
2023-03-06T15:05:53.975Z,11.87
2023-03-06T15:08:27.698Z,11.91
2023-03-06T15:11:00.345Z,11.88
2023-03-06T15:13:29.662Z,11.90
2023-03-06T15:16:07.053Z,11.85
2023-03-06T15:18:38.853Z,11.81
2023-03-06T15:21:13.335Z,11.74
2023-03-06T15:23:45.664Z,11.86
2023-03-06T15:26:33.396Z,12.00
2023-03-06T15:29:09.998Z,12.15
2023-03-06T15:31:39.840Z,12.20
2023-03-06T15:34:06.492Z,12.26
2023-03-06T15:36:36.822Z,12.25
2023-03-06T15:39:28.385Z,12.11
2023-03-06T15:42:00.051Z,11.96
2023-03-06T15:44:27.085Z,11.77
2023-03-06T15:47:07.771Z,11.65
2023-03-06T15:49:36.842Z,11.58
2023-03-06T15:52:03.528Z,11.57
2023-03-06T15:54:32.757Z,11.51
2023-03-06T15:57:00.064Z,11.43
2023-03-06T15:59:32.842Z,11.43
2023-03-06T16:02:13.642Z,11.39
2023-03-06T16:04:40.400Z,11.33
2023-03-06T16:07:07.124Z,11.34
2023-03-06T16:09:33.877Z,11.34
2023-03-06T16:12:00.705Z,11.37
2023-03-06T16:14:27.534Z,11.42
2023-03-06T16:16:54.760Z,11.34
2023-03-06T16:19:26.275Z,11.35
2023-03-06T16:21:54.612Z,11.27
2023-03-06T16:24:21.778Z,11.28
2023-03-06T16:26:51.029Z,11.27
2023-03-06T16:29:19.496Z,11.24
2023-03-06T16:31:46.999Z,11.23
2023-03-06T16:34:14.027Z,11.18
2023-03-06T16:36:41.077Z,11.20
2023-03-06T16:39:16.492Z,11.23
2023-03-06T16:41:44.985Z,11.18
2023-03-06T16:44:12.439Z,11.19
2023-03-06T16:46:47.279Z,11.15
2023-03-06T16:49:19.959Z,11.13
2023-03-06T16:51:46.922Z,11.12
2023-03-06T16:54:13.896Z,11.08
2023-03-06T16:56:40.914Z,11.12
2023-03-06T16:59:08.144Z,11.14
2023-03-06T17:01:35.194Z,11.08
2023-03-06T17:04:01.988Z,11.11
2023-03-06T17:06:29.088Z,11.09
2023-03-06T17:08:57.946Z,11.06
2023-03-06T17:11:25.173Z,11.05
2023-03-06T17:13:51.969Z,10.96
2023-03-06T17:16:18.814Z,10.96
2023-03-06T17:18:46.301Z,10.93
2023-03-06T17:21:17.347Z,10.90
2023-03-06T17:23:44.776Z,10.88
2023-03-06T17:26:21.337Z,10.80
2023-03-06T17:28:48.562Z,10.78
2023-03-06T17:31:24.236Z,10.71
2023-03-06T17:33:51.925Z,10.63
2023-03-06T17:36:19.430Z,10.62
2023-03-06T17:38:46.503Z,10.58
2023-03-06T17:41:13.513Z,10.59
2023-03-06T17:43:41.022Z,10.56
2023-03-06T17:46:10.097Z,10.34
2023-03-06T17:48:37.524Z,10.43
2023-03-06T17:51:05.211Z,10.41
2023-03-06T17:53:32.439Z,10.39
2023-03-06T17:55:59.383Z,10.32
2023-03-06T17:58:26.784Z,10.30
2023-03-06T18:00:53.928Z,10.23
2023-03-06T18:03:21.072Z,10.28
2023-03-06T18:05:47.973Z,10.19
2023-03-06T18:08:14.758Z,10.14
2023-03-06T18:10:43.460Z,10.11
2023-03-06T18:13:10.999Z,10.09
2023-03-06T18:15:41.654Z,9.97
2023-03-06T18:18:09.224Z,9.93
2023-03-06T18:20:46.999Z,9.86
2023-03-06T18:23:14.149Z,9.80
2023-03-06T18:25:41.452Z,9.74
2023-03-06T18:28:08.209Z,9.72
2023-03-06T18:30:36.044Z,9.68
2023-03-06T18:33:02.820Z,9.64
2023-03-06T18:35:29.816Z,9.67
2023-03-06T18:37:56.494Z,9.65
2023-03-06T18:40:24.863Z,9.53
2023-03-06T18:42:54.804Z,9.42
2023-03-06T18:45:21.471Z,9.25
2023-03-06T18:47:48.164Z,9.27
2023-03-06T18:50:17.687Z,9.26
2023-03-06T18:52:44.766Z,9.20
2023-03-06T18:55:12.387Z,9.24
2023-03-06T18:57:39.261Z,9.31
2023-03-06T19:00:08.777Z,9.37
2023-03-06T19:02:35.494Z,9.39
2023-03-06T19:05:02.605Z,9.27
2023-03-06T19:07:29.374Z,9.32
2023-03-06T19:09:56.007Z,9.25
2023-03-06T19:12:23.516Z,9.20
2023-03-06T19:14:50.298Z,9.09
2023-03-06T19:17:17.008Z,9.02
2023-03-06T19:19:43.686Z,8.98
2023-03-06T19:22:10.431Z,8.95
2023-03-06T19:24:37.107Z,8.90
2023-03-06T19:27:03.922Z,8.88
2023-03-06T19:29:32.355Z,8.82
2023-03-06T19:31:59.134Z,8.76
2023-03-06T19:34:25.789Z,8.81
2023-03-06T19:36:52.812Z,8.77
2023-03-06T19:39:19.645Z,8.76
2023-03-06T19:41:47.744Z,8.68
2023-03-06T19:44:16.242Z,8.59
2023-03-06T19:46:43.546Z,8.60
2023-03-06T19:49:16.937Z,8.60
2023-03-06T19:51:44.421Z,8.61
2023-03-06T19:54:12.523Z,8.55
2023-03-06T19:56:39.745Z,8.47
2023-03-06T19:59:06.436Z,8.42
2023-03-06T20:01:34.313Z,8.39
2023-03-06T20:04:01.349Z,8.39
2023-03-06T20:06:31.256Z,8.30
2023-03-06T20:08:58.082Z,8.14
2023-03-06T20:11:27.426Z,8.20
2023-03-06T20:13:54.361Z,8.07
2023-03-06T20:16:21.112Z,8.23
2023-03-06T20:18:47.906Z,8.22
2023-03-06T20:21:15.123Z,8.16
2023-03-06T20:23:42.072Z,8.09
2023-03-06T20:26:12.211Z,8.08
2023-03-06T20:28:40.875Z,8.09
2023-03-06T20:31:16.602Z,8.08
2023-03-06T20:33:44.841Z,8.06
2023-03-06T20:36:13.497Z,8.07
2023-03-06T20:38:40.888Z,8.08
2023-03-06T20:41:13.143Z,7.94
2023-03-06T20:43:39.940Z,8.02
2023-03-06T20:46:07.020Z,7.98
2023-03-06T20:48:33.809Z,7.90
2023-03-06T20:51:28.763Z,7.87
2023-03-06T20:53:56.273Z,7.92
2023-03-06T20:56:26.281Z,7.90
2023-03-06T20:58:53.373Z,7.85
2023-03-06T21:01:25.764Z,7.86
2023-03-06T21:03:53.382Z,7.92
2023-03-06T21:06:20.940Z,7.91
2023-03-06T21:08:47.808Z,7.92
2023-03-06T21:11:15.420Z,7.87
2023-03-06T21:13:42.500Z,7.86
2023-03-06T21:16:12.403Z,7.81
2023-03-06T21:18:42.595Z,7.79
2023-03-06T21:21:12.263Z,7.74
2023-03-06T21:23:39.572Z,7.76
2023-03-06T21:26:06.844Z,7.78
2023-03-06T21:28:33.527Z,7.81
2023-03-06T21:31:00.984Z,7.78
2023-03-06T21:33:28.483Z,7.71
2023-03-06T21:35:55.389Z,7.67
2023-03-06T21:38:22.049Z,7.70
2023-03-06T21:40:49.104Z,7.71
2023-03-06T21:43:17.479Z,7.71
2023-03-06T21:45:45.902Z,7.75
2023-03-06T21:48:14.697Z,7.66
2023-03-06T21:50:42.022Z,7.67
2023-03-06T21:53:09.078Z,7.61
2023-03-06T21:55:40.531Z,7.61
2023-03-06T21:58:08.273Z,7.57
2023-03-06T22:00:36.449Z,7.56
2023-03-06T22:03:04.746Z,7.53
2023-03-06T22:05:34.573Z,7.67
2023-03-06T22:08:01.409Z,7.66
2023-03-06T22:10:28.224Z,7.61
2023-03-06T22:12:54.898Z,7.62
2023-03-06T22:15:21.893Z,7.59
2023-03-06T22:17:48.883Z,7.53
2023-03-06T22:20:15.886Z,7.53
2023-03-06T22:22:43.664Z,7.61
2023-03-06T22:25:11.979Z,7.61
2023-03-06T22:27:39.009Z,7.60
2023-03-06T22:30:06.536Z,7.48
2023-03-06T22:32:33.362Z,7.64
2023-03-06T22:35:00.055Z,7.63
2023-03-06T22:37:26.785Z,7.62
2023-03-06T22:39:53.370Z,7.67
2023-03-06T22:42:20.291Z,7.65
2023-03-06T22:44:46.972Z,7.64
2023-03-06T22:47:13.689Z,7.57
2023-03-06T22:49:40.378Z,7.57
2023-03-06T22:52:07.241Z,7.61
2023-03-06T22:54:33.928Z,7.58
2023-03-06T22:57:00.647Z,7.59
2023-03-06T22:59:27.263Z,7.66
2023-03-06T23:01:53.958Z,7.71
2023-03-06T23:04:20.617Z,7.64
2023-03-06T23:06:47.549Z,7.64
2023-03-06T23:09:21.419Z,7.68
2023-03-06T23:12:08.992Z,7.60
2023-03-06T23:14:54.825Z,7.52
2023-03-06T23:17:40.150Z,7.47
2023-03-06T23:20:25.438Z,7.46
2023-03-06T23:23:11.773Z,7.49
2023-03-06T23:25:41.663Z,7.50
2023-03-06T23:28:08.434Z,7.47
2023-03-06T23:30:35.091Z,7.42
2023-03-06T23:33:01.810Z,7.34
2023-03-06T23:35:28.439Z,7.28
2023-03-06T23:37:55.150Z,7.26
2023-03-06T23:40:22.217Z,7.24
2023-03-06T23:42:49.312Z,7.22
2023-03-06T23:45:16.642Z,7.21
2023-03-06T23:47:43.342Z,7.07
2023-03-06T23:50:10.835Z,6.99
2023-03-06T23:52:38.262Z,6.99
2023-03-06T23:55:05.828Z,7.01
2023-03-06T23:57:32.998Z,7.06
2023-03-06T23:59:59.632Z,7.05
